sensor_id;sensor_type;location;lat;lon;timestamp;temperature;humidity
71523;HTU21D;59343;51.102;5.884;2023-12-07T00:00:15;3.15;84.40
71523;HTU21D;59343;51.102;5.884;2023-12-07T00:02:42;3.13;84.42
71523;HTU21D;59343;51.102;5.884;2023-12-07T00:05:08;3.09;84.34
71523;HTU21D;59343;51.102;5.884;2023-12-07T00:07:34;3.06;84.29
71523;HTU21D;59343;51.102;5.884;2023-12-07T00:10:00;3.05;84.23
71523;HTU21D;59343;51.102;5.884;2023-12-07T00:12:26;3.02;84.08
71523;HTU21D;59343;51.102;5.884;2023-12-07T00:14:52;2.97;84.09
71523;HTU21D;59343;51.102;5.884;2023-12-07T00:17:18;2.93;84.07
71523;HTU21D;59343;51.102;5.884;2023-12-07T00:19:44;2.89;83.98
71523;HTU21D;59343;51.102;5.884;2023-12-07T00:22:10;2.86;84.02
71523;HTU21D;59343;51.102;5.884;2023-12-07T00:24:36;2.85;84.02
71523;HTU21D;59343;51.102;5.884;2023-12-07T00:27:03;2.84;84.10
71523;HTU21D;59343;51.102;5.884;2023-12-07T00:29:29;2.84;84.14
71523;HTU21D;59343;51.102;5.884;2023-12-07T00:31:56;2.83;84.41
71523;HTU21D;59343;51.102;5.884;2023-12-07T00:34:22;2.83;84.51
71523;HTU21D;59343;51.102;5.884;2023-12-07T00:36:48;2.82;84.44
71523;HTU21D;59343;51.102;5.884;2023-12-07T00:39:14;2.82;84.45
71523;HTU21D;59343;51.102;5.884;2023-12-07T00:41:42;2.82;84.62
71523;HTU21D;59343;51.102;5.884;2023-12-07T00:44:08;2.85;84.89
71523;HTU21D;59343;51.102;5.884;2023-12-07T00:46:34;2.88;85.29
71523;HTU21D;59343;51.102;5.884;2023-12-07T00:49:00;2.91;85.63
71523;HTU21D;59343;51.102;5.884;2023-12-07T00:51:26;2.93;85.87
71523;HTU21D;59343;51.102;5.884;2023-12-07T00:53:52;2.93;86.16
71523;HTU21D;59343;51.102;5.884;2023-12-07T00:56:21;2.93;86.32
71523;HTU21D;59343;51.102;5.884;2023-12-07T00:58:47;2.93;86.53
71523;HTU21D;59343;51.102;5.884;2023-12-07T01:01:13;2.93;86.61
71523;HTU21D;59343;51.102;5.884;2023-12-07T01:03:39;2.90;86.61
71523;HTU21D;59343;51.102;5.884;2023-12-07T01:06:07;2.91;86.67
71523;HTU21D;59343;51.102;5.884;2023-12-07T01:08:35;2.89;86.64
71523;HTU21D;59343;51.102;5.884;2023-12-07T01:11:01;2.90;86.58
71523;HTU21D;59343;51.102;5.884;2023-12-07T01:13:27;2.93;86.69
71523;HTU21D;59343;51.102;5.884;2023-12-07T01:15:53;2.95;86.80
71523;HTU21D;59343;51.102;5.884;2023-12-07T01:18:19;2.95;86.94
71523;HTU21D;59343;51.102;5.884;2023-12-07T01:20:46;2.97;87.22
71523;HTU21D;59343;51.102;5.884;2023-12-07T01:23:12;2.98;87.40
71523;HTU21D;59343;51.102;5.884;2023-12-07T01:25:40;3.00;87.71
71523;HTU21D;59343;51.102;5.884;2023-12-07T01:28:06;3.02;88.09
71523;HTU21D;59343;51.102;5.884;2023-12-07T01:30:32;3.12;88.83
71523;HTU21D;59343;51.102;5.884;2023-12-07T01:32:57;3.18;89.38
71523;HTU21D;59343;51.102;5.884;2023-12-07T01:35:23;3.27;89.64
71523;HTU21D;59343;51.102;5.884;2023-12-07T01:37:49;3.34;89.87
71523;HTU21D;59343;51.102;5.884;2023-12-07T01:40:15;3.42;90.02
71523;HTU21D;59343;51.102;5.884;2023-12-07T01:42:52;3.45;90.19
71523;HTU21D;59343;51.102;5.884;2023-12-07T01:45:19;3.49;90.30
71523;HTU21D;59343;51.102;5.884;2023-12-07T01:47:53;3.52;90.52
71523;HTU21D;59343;51.102;5.884;2023-12-07T01:50:21;3.55;90.52
71523;HTU21D;59343;51.102;5.884;2023-12-07T01:52:52;3.55;90.57
71523;HTU21D;59343;51.102;5.884;2023-12-07T01:55:22;3.54;90.57
71523;HTU21D;59343;51.102;5.884;2023-12-07T01:57:48;3.52;90.47
71523;HTU21D;59343;51.102;5.884;2023-12-07T02:00:16;3.49;90.62
71523;HTU21D;59343;51.102;5.884;2023-12-07T02:02:44;3.47;90.71
71523;HTU21D;59343;51.102;5.884;2023-12-07T02:05:12;3.49;90.90
71523;HTU21D;59343;51.102;5.884;2023-12-07T02:07:41;3.53;90.80
71523;HTU21D;59343;51.102;5.884;2023-12-07T02:10:07;3.54;90.53
71523;HTU21D;59343;51.102;5.884;2023-12-07T02:12:33;3.48;90.22
71523;HTU21D;59343;51.102;5.884;2023-12-07T02:15:02;3.45;90.34
71523;HTU21D;59343;51.102;5.884;2023-12-07T02:20:20;3.44;90.36
71523;HTU21D;59343;51.102;5.884;2023-12-07T02:22:56;3.44;90.51
71523;HTU21D;59343;51.102;5.884;2023-12-07T02:25:40;3.44;90.06
71523;HTU21D;59343;51.102;5.884;2023-12-07T02:28:07;3.39;89.95
71523;HTU21D;59343;51.102;5.884;2023-12-07T02:30:33;3.33;90.13
71523;HTU21D;59343;51.102;5.884;2023-12-07T02:32:59;3.31;90.22
71523;HTU21D;59343;51.102;5.884;2023-12-07T02:35:25;3.28;90.20
71523;HTU21D;59343;51.102;5.884;2023-12-07T02:37:52;3.26;90.46
71523;HTU21D;59343;51.102;5.884;2023-12-07T02:40:22;3.26;90.70
71523;HTU21D;59343;51.102;5.884;2023-12-07T02:42:50;3.27;90.80
71523;HTU21D;59343;51.102;5.884;2023-12-07T02:45:17;3.30;90.79
71523;HTU21D;59343;51.102;5.884;2023-12-07T02:47:43;3.32;90.88
71523;HTU21D;59343;51.102;5.884;2023-12-07T02:50:12;3.34;90.89
71523;HTU21D;59343;51.102;5.884;2023-12-07T02:52:39;3.35;90.88
71523;HTU21D;59343;51.102;5.884;2023-12-07T02:55:05;3.39;90.88
71523;HTU21D;59343;51.102;5.884;2023-12-07T02:57:32;3.38;90.75
71523;HTU21D;59343;51.102;5.884;2023-12-07T02:59:59;3.38;91.04
71523;HTU21D;59343;51.102;5.884;2023-12-07T03:02:25;3.40;90.89
71523;HTU21D;59343;51.102;5.884;2023-12-07T03:04:52;3.40;91.07
71523;HTU21D;59343;51.102;5.884;2023-12-07T03:07:18;3.43;91.17
71523;HTU21D;59343;51.102;5.884;2023-12-07T03:09:44;3.44;91.22
71523;HTU21D;59343;51.102;5.884;2023-12-07T03:12:10;3.48;91.32
71523;HTU21D;59343;51.102;5.884;2023-12-07T03:14:36;3.54;91.24
71523;HTU21D;59343;51.102;5.884;2023-12-07T03:17:03;3.55;91.38
71523;HTU21D;59343;51.102;5.884;2023-12-07T03:19:29;3.58;91.40
71523;HTU21D;59343;51.102;5.884;2023-12-07T03:21:55;3.62;91.35
71523;HTU21D;59343;51.102;5.884;2023-12-07T03:24:22;3.65;91.21
71523;HTU21D;59343;51.102;5.884;2023-12-07T03:26:48;3.68;91.33
71523;HTU21D;59343;51.102;5.884;2023-12-07T03:29:14;3.72;91.35
71523;HTU21D;59343;51.102;5.884;2023-12-07T03:31:49;3.75;91.29
71523;HTU21D;59343;51.102;5.884;2023-12-07T03:34:15;3.80;91.34
71523;HTU21D;59343;51.102;5.884;2023-12-07T03:36:45;3.84;91.16
71523;HTU21D;59343;51.102;5.884;2023-12-07T03:39:11;3.86;91.12
71523;HTU21D;59343;51.102;5.884;2023-12-07T03:41:38;3.89;91.10
71523;HTU21D;59343;51.102;5.884;2023-12-07T03:44:04;3.90;91.08
71523;HTU21D;59343;51.102;5.884;2023-12-07T03:46:30;3.91;90.98
71523;HTU21D;59343;51.102;5.884;2023-12-07T03:48:56;3.94;90.98
71523;HTU21D;59343;51.102;5.884;2023-12-07T03:51:22;3.97;91.09
71523;HTU21D;59343;51.102;5.884;2023-12-07T03:53:48;4.00;90.86
71523;HTU21D;59343;51.102;5.884;2023-12-07T03:56:28;4.02;90.94
71523;HTU21D;59343;51.102;5.884;2023-12-07T03:58:56;4.03;90.92
71523;HTU21D;59343;51.102;5.884;2023-12-07T04:01:23;4.03;90.82
71523;HTU21D;59343;51.102;5.884;2023-12-07T04:03:51;4.04;90.79
71523;HTU21D;59343;51.102;5.884;2023-12-07T04:06:17;4.02;90.91
71523;HTU21D;59343;51.102;5.884;2023-12-07T04:08:45;4.04;90.95
71523;HTU21D;59343;51.102;5.884;2023-12-07T04:11:12;4.06;91.09
71523;HTU21D;59343;51.102;5.884;2023-12-07T04:13:39;4.08;91.04
71523;HTU21D;59343;51.102;5.884;2023-12-07T04:16:05;4.09;90.89
71523;HTU21D;59343;51.102;5.884;2023-12-07T04:18:34;4.09;90.79
71523;HTU21D;59343;51.102;5.884;2023-12-07T04:21:00;4.12;90.69
71523;HTU21D;59343;51.102;5.884;2023-12-07T04:23:26;4.10;90.51
71523;HTU21D;59343;51.102;5.884;2023-12-07T04:25:52;4.07;90.75
71523;HTU21D;59343;51.102;5.884;2023-12-07T04:28:18;4.06;90.69
71523;HTU21D;59343;51.102;5.884;2023-12-07T04:30:44;4.06;90.92
71523;HTU21D;59343;51.102;5.884;2023-12-07T04:33:10;4.09;90.85
71523;HTU21D;59343;51.102;5.884;2023-12-07T04:35:36;4.13;90.86
71523;HTU21D;59343;51.102;5.884;2023-12-07T04:38:02;4.12;90.77
71523;HTU21D;59343;51.102;5.884;2023-12-07T04:40:28;4.14;90.69
71523;HTU21D;59343;51.102;5.884;2023-12-07T04:42:54;4.13;90.63
71523;HTU21D;59343;51.102;5.884;2023-12-07T04:45:20;4.13;90.59
71523;HTU21D;59343;51.102;5.884;2023-12-07T04:47:46;4.10;90.27
71523;HTU21D;59343;51.102;5.884;2023-12-07T04:50:12;4.07;90.37
71523;HTU21D;59343;51.102;5.884;2023-12-07T04:52:39;4.07;90.56
71523;HTU21D;59343;51.102;5.884;2023-12-07T04:55:06;4.08;90.58
71523;HTU21D;59343;51.102;5.884;2023-12-07T04:57:33;4.08;90.49
71523;HTU21D;59343;51.102;5.884;2023-12-07T04:59:59;4.08;90.57
71523;HTU21D;59343;51.102;5.884;2023-12-07T05:02:26;4.10;90.60
71523;HTU21D;59343;51.102;5.884;2023-12-07T05:04:53;4.12;90.57
71523;HTU21D;59343;51.102;5.884;2023-12-07T05:07:20;4.13;90.45
71523;HTU21D;59343;51.102;5.884;2023-12-07T05:09:49;4.12;90.32
71523;HTU21D;59343;51.102;5.884;2023-12-07T05:12:17;4.09;90.36
71523;HTU21D;59343;51.102;5.884;2023-12-07T05:14:43;4.09;90.34
71523;HTU21D;59343;51.102;5.884;2023-12-07T05:17:09;4.09;90.58
71523;HTU21D;59343;51.102;5.884;2023-12-07T05:19:35;4.10;90.57
71523;HTU21D;59343;51.102;5.884;2023-12-07T05:22:01;4.12;90.57
71523;HTU21D;59343;51.102;5.884;2023-12-07T05:24:30;4.14;90.53
71523;HTU21D;59343;51.102;5.884;2023-12-07T05:26:58;4.15;90.54
71523;HTU21D;59343;51.102;5.884;2023-12-07T05:29:24;4.15;90.41
71523;HTU21D;59343;51.102;5.884;2023-12-07T05:31:50;4.15;90.34
71523;HTU21D;59343;51.102;5.884;2023-12-07T05:34:17;4.15;90.28
71523;HTU21D;59343;51.102;5.884;2023-12-07T05:36:43;4.15;90.31
71523;HTU21D;59343;51.102;5.884;2023-12-07T05:39:10;4.15;90.34
71523;HTU21D;59343;51.102;5.884;2023-12-07T05:41:36;4.15;90.34
71523;HTU21D;59343;51.102;5.884;2023-12-07T05:44:03;4.17;90.49
71523;HTU21D;59343;51.102;5.884;2023-12-07T05:46:31;4.20;90.35
71523;HTU21D;59343;51.102;5.884;2023-12-07T05:48:59;4.22;90.44
71523;HTU21D;59343;51.102;5.884;2023-12-07T05:51:29;4.24;90.32
71523;HTU21D;59343;51.102;5.884;2023-12-07T05:53:55;4.28;90.19
71523;HTU21D;59343;51.102;5.884;2023-12-07T05:56:23;4.29;90.08
71523;HTU21D;59343;51.102;5.884;2023-12-07T05:58:53;4.31;89.94
71523;HTU21D;59343;51.102;5.884;2023-12-07T06:01:21;4.29;89.98
71523;HTU21D;59343;51.102;5.884;2023-12-07T06:03:56;4.31;90.08
71523;HTU21D;59343;51.102;5.884;2023-12-07T06:06:26;4.33;90.12
71523;HTU21D;59343;51.102;5.884;2023-12-07T06:09:01;4.36;90.29
71523;HTU21D;59343;51.102;5.884;2023-12-07T06:11:33;4.38;90.10
71523;HTU21D;59343;51.102;5.884;2023-12-07T06:14:05;4.39;90.04
71523;HTU21D;59343;51.102;5.884;2023-12-07T06:16:35;4.39;90.02
71523;HTU21D;59343;51.102;5.884;2023-12-07T06:19:07;4.38;89.96
71523;HTU21D;59343;51.102;5.884;2023-12-07T06:21:39;4.37;90.04
71523;HTU21D;59343;51.102;5.884;2023-12-07T06:24:08;4.36;89.83
71523;HTU21D;59343;51.102;5.884;2023-12-07T06:26:37;4.35;89.89
71523;HTU21D;59343;51.102;5.884;2023-12-07T06:29:11;4.35;89.95
71523;HTU21D;59343;51.102;5.884;2023-12-07T06:31:52;4.35;89.86
71523;HTU21D;59343;51.102;5.884;2023-12-07T06:34:21;4.37;89.83
71523;HTU21D;59343;51.102;5.884;2023-12-07T06:36:50;4.35;89.73
71523;HTU21D;59343;51.102;5.884;2023-12-07T06:39:22;4.37;89.73
71523;HTU21D;59343;51.102;5.884;2023-12-07T06:41:48;4.38;89.39
71523;HTU21D;59343;51.102;5.884;2023-12-07T06:44:15;4.31;89.25
71523;HTU21D;59343;51.102;5.884;2023-12-07T06:46:42;4.28;89.54
71523;HTU21D;59343;51.102;5.884;2023-12-07T06:49:16;4.28;89.70
71523;HTU21D;59343;51.102;5.884;2023-12-07T06:51:44;4.31;89.76
71523;HTU21D;59343;51.102;5.884;2023-12-07T06:54:14;4.31;89.63
71523;HTU21D;59343;51.102;5.884;2023-12-07T06:56:41;4.31;89.70
71523;HTU21D;59343;51.102;5.884;2023-12-07T06:59:07;4.35;89.72
71523;HTU21D;59343;51.102;5.884;2023-12-07T07:01:35;4.41;89.63
71523;HTU21D;59343;51.102;5.884;2023-12-07T07:04:01;4.44;89.34
71523;HTU21D;59343;51.102;5.884;2023-12-07T07:06:27;4.48;89.09
71523;HTU21D;59343;51.102;5.884;2023-12-07T07:08:54;4.46;88.62
71523;HTU21D;59343;51.102;5.884;2023-12-07T07:11:32;4.43;88.51
71523;HTU21D;59343;51.102;5.884;2023-12-07T07:14:22;4.38;88.38
71523;HTU21D;59343;51.102;5.884;2023-12-07T07:16:58;4.33;88.21
71523;HTU21D;59343;51.102;5.884;2023-12-07T07:19:48;4.27;88.12
71523;HTU21D;59343;51.102;5.884;2023-12-07T07:22:18;4.17;88.06
71523;HTU21D;59343;51.102;5.884;2023-12-07T07:24:46;4.13;88.05
71523;HTU21D;59343;51.102;5.884;2023-12-07T07:27:12;4.06;87.99
71523;HTU21D;59343;51.102;5.884;2023-12-07T07:51:29;3.80;88.04
71523;HTU21D;59343;51.102;5.884;2023-12-07T07:54:13;3.78;88.09
71523;HTU21D;59343;51.102;5.884;2023-12-07T07:56:43;3.77;87.99
71523;HTU21D;59343;51.102;5.884;2023-12-07T07:59:12;3.76;88.06
71523;HTU21D;59343;51.102;5.884;2023-12-07T08:01:53;3.77;88.06
71523;HTU21D;59343;51.102;5.884;2023-12-07T08:05:02;3.76;88.08
71523;HTU21D;59343;51.102;5.884;2023-12-07T08:07:32;3.77;88.00
71523;HTU21D;59343;51.102;5.884;2023-12-07T08:12:45;3.77;87.89
71523;HTU21D;59343;51.102;5.884;2023-12-07T08:15:23;3.76;87.78
71523;HTU21D;59343;51.102;5.884;2023-12-07T08:17:53;3.76;87.70
71523;HTU21D;59343;51.102;5.884;2023-12-07T08:20:37;3.76;87.67
71523;HTU21D;59343;51.102;5.884;2023-12-07T08:23:08;3.75;87.61
71523;HTU21D;59343;51.102;5.884;2023-12-07T08:25:47;3.75;87.48
71523;HTU21D;59343;51.102;5.884;2023-12-07T08:28:47;3.73;87.21
71523;HTU21D;59343;51.102;5.884;2023-12-07T08:31:23;3.75;87.09
71523;HTU21D;59343;51.102;5.884;2023-12-07T08:33:55;3.71;86.94
71523;HTU21D;59343;51.102;5.884;2023-12-07T08:36:25;3.72;86.83
71523;HTU21D;59343;51.102;5.884;2023-12-07T08:38:59;3.68;86.61
71523;HTU21D;59343;51.102;5.884;2023-12-07T08:41:28;3.65;86.68
71523;HTU21D;59343;51.102;5.884;2023-12-07T08:43:58;3.65;86.81
71523;HTU21D;59343;51.102;5.884;2023-12-07T08:46:25;3.71;87.06
71523;HTU21D;59343;51.102;5.884;2023-12-07T08:48:55;3.74;87.59
71523;HTU21D;59343;51.102;5.884;2023-12-07T08:51:28;3.84;88.37
71523;HTU21D;59343;51.102;5.884;2023-12-07T08:54:07;4.07;90.08
71523;HTU21D;59343;51.102;5.884;2023-12-07T08:56:44;4.33;90.37
71523;HTU21D;59343;51.102;5.884;2023-12-07T08:59:12;4.57;89.72
71523;HTU21D;59343;51.102;5.884;2023-12-07T09:02:03;4.72;87.03
71523;HTU21D;59343;51.102;5.884;2023-12-07T09:04:43;4.83;85.29
71523;HTU21D;59343;51.102;5.884;2023-12-07T09:07:25;4.89;83.83
71523;HTU21D;59343;51.102;5.884;2023-12-07T09:09:55;4.92;83.15
71523;HTU21D;59343;51.102;5.884;2023-12-07T09:12:27;5.00;83.88
71523;HTU21D;59343;51.102;5.884;2023-12-07T09:14:54;5.15;84.80
71523;HTU21D;59343;51.102;5.884;2023-12-07T09:17:20;5.39;85.97
71523;HTU21D;59343;51.102;5.884;2023-12-07T09:19:47;5.78;87.06
71523;HTU21D;59343;51.102;5.884;2023-12-07T09:22:30;6.36;88.16
71523;HTU21D;59343;51.102;5.884;2023-12-07T09:24:56;6.94;86.45
71523;HTU21D;59343;51.102;5.884;2023-12-07T09:27:38;7.52;83.84
71523;HTU21D;59343;51.102;5.884;2023-12-07T09:30:06;8.01;80.67
71523;HTU21D;59343;51.102;5.884;2023-12-07T09:33:03;8.43;77.46
71523;HTU21D;59343;51.102;5.884;2023-12-07T09:38:47;9.03;73.34
71523;HTU21D;59343;51.102;5.884;2023-12-07T09:41:13;9.15;71.29
71523;HTU21D;59343;51.102;5.884;2023-12-07T09:43:42;9.31;70.63
71523;HTU21D;59343;51.102;5.884;2023-12-07T09:46:08;9.48;69.71
71523;HTU21D;59343;51.102;5.884;2023-12-07T09:48:37;9.63;69.31
71523;HTU21D;59343;51.102;5.884;2023-12-07T09:51:07;9.71;68.77
71523;HTU21D;59343;51.102;5.884;2023-12-07T09:53:34;9.93;69.32
71523;HTU21D;59343;51.102;5.884;2023-12-07T09:56:00;10.15;68.62
71523;HTU21D;59343;51.102;5.884;2023-12-07T09:58:26;10.42;68.27
71523;HTU21D;59343;51.102;5.884;2023-12-07T10:00:52;10.75;69.09
71523;HTU21D;59343;51.102;5.884;2023-12-07T10:03:22;11.24;68.88
71523;HTU21D;59343;51.102;5.884;2023-12-07T10:05:56;11.66;66.97
71523;HTU21D;59343;51.102;5.884;2023-12-07T10:08:27;11.99;65.44
71523;HTU21D;59343;51.102;5.884;2023-12-07T10:11:08;12.31;64.09
71523;HTU21D;59343;51.102;5.884;2023-12-07T10:13:36;12.61;62.83
71523;HTU21D;59343;51.102;5.884;2023-12-07T10:16:14;12.87;61.50
71523;HTU21D;59343;51.102;5.884;2023-12-07T10:18:41;13.07;60.45
71523;HTU21D;59343;51.102;5.884;2023-12-07T10:21:07;13.17;59.48
71523;HTU21D;59343;51.102;5.884;2023-12-07T10:23:36;13.23;59.03
71523;HTU21D;59343;51.102;5.884;2023-12-07T10:26:02;13.35;58.42
71523;HTU21D;59343;51.102;5.884;2023-12-07T10:28:28;13.50;57.65
71523;HTU21D;59343;51.102;5.884;2023-12-07T10:30:54;13.48;57.25
71523;HTU21D;59343;51.102;5.884;2023-12-07T10:33:20;13.51;56.77
71523;HTU21D;59343;51.102;5.884;2023-12-07T10:35:47;13.43;56.30
71523;HTU21D;59343;51.102;5.884;2023-12-07T10:38:16;13.37;56.70
71523;HTU21D;59343;51.102;5.884;2023-12-07T10:40:42;13.32;56.56
71523;HTU21D;59343;51.102;5.884;2023-12-07T10:43:08;13.30;56.27
71523;HTU21D;59343;51.102;5.884;2023-12-07T10:45:36;13.31;56.08
71523;HTU21D;59343;51.102;5.884;2023-12-07T10:48:07;13.34;56.28
71523;HTU21D;59343;51.102;5.884;2023-12-07T10:50:43;13.45;56.19
71523;HTU21D;59343;51.102;5.884;2023-12-07T10:53:21;13.51;55.20
71523;HTU21D;59343;51.102;5.884;2023-12-07T10:55:56;13.45;54.48
71523;HTU21D;59343;51.102;5.884;2023-12-07T10:58:23;13.38;55.38
71523;HTU21D;59343;51.102;5.884;2023-12-07T11:00:52;13.40;55.21
71523;HTU21D;59343;51.102;5.884;2023-12-07T11:03:18;13.50;55.07
71523;HTU21D;59343;51.102;5.884;2023-12-07T11:05:45;13.63;55.16
71523;HTU21D;59343;51.102;5.884;2023-12-07T11:08:39;13.69;54.52
71523;HTU21D;59343;51.102;5.884;2023-12-07T11:11:24;13.66;54.53
71523;HTU21D;59343;51.102;5.884;2023-12-07T11:14:07;13.61;54.04
71523;HTU21D;59343;51.102;5.884;2023-12-07T11:16:36;13.58;54.24
71523;HTU21D;59343;51.102;5.884;2023-12-07T11:19:03;13.67;54.39
71523;HTU21D;59343;51.102;5.884;2023-12-07T11:21:30;13.74;54.58
71523;HTU21D;59343;51.102;5.884;2023-12-07T11:24:00;13.80;54.18
71523;HTU21D;59343;51.102;5.884;2023-12-07T11:26:27;13.83;54.08
71523;HTU21D;59343;51.102;5.884;2023-12-07T11:28:54;13.80;53.71
71523;HTU21D;59343;51.102;5.884;2023-12-07T11:31:21;13.76;53.94
71523;HTU21D;59343;51.102;5.884;2023-12-07T11:33:47;13.64;53.49
71523;HTU21D;59343;51.102;5.884;2023-12-07T11:36:14;13.49;53.86
71523;HTU21D;59343;51.102;5.884;2023-12-07T11:41:43;12.93;54.59
71523;HTU21D;59343;51.102;5.884;2023-12-07T11:44:10;12.60;55.06
71523;HTU21D;59343;51.102;5.884;2023-12-07T11:46:40;12.33;55.74
71523;HTU21D;59343;51.102;5.884;2023-12-07T11:49:07;12.20;56.74
71523;HTU21D;59343;51.102;5.884;2023-12-07T11:51:36;12.21;57.51
71523;HTU21D;59343;51.102;5.884;2023-12-07T11:54:03;12.32;57.80
71523;HTU21D;59343;51.102;5.884;2023-12-07T11:56:32;12.42;57.71
71523;HTU21D;59343;51.102;5.884;2023-12-07T11:59:00;12.43;57.69
71523;HTU21D;59343;51.102;5.884;2023-12-07T12:01:28;12.44;57.22
71523;HTU21D;59343;51.102;5.884;2023-12-07T12:03:59;12.34;57.05
71523;HTU21D;59343;51.102;5.884;2023-12-07T12:06:29;12.26;57.69
71523;HTU21D;59343;51.102;5.884;2023-12-07T12:08:57;12.22;57.87
71523;HTU21D;59343;51.102;5.884;2023-12-07T12:11:23;12.21;57.58
71523;HTU21D;59343;51.102;5.884;2023-12-07T12:13:52;12.01;57.51
71523;HTU21D;59343;51.102;5.884;2023-12-07T12:16:18;11.88;58.36
71523;HTU21D;59343;51.102;5.884;2023-12-07T12:18:44;11.69;58.48
71523;HTU21D;59343;51.102;5.884;2023-12-07T12:21:23;11.40;58.75
71523;HTU21D;59343;51.102;5.884;2023-12-07T12:23:49;11.10;59.25
71523;HTU21D;59343;51.102;5.884;2023-12-07T12:26:16;10.79;60.10
71523;HTU21D;59343;51.102;5.884;2023-12-07T12:28:44;10.50;60.48
71523;HTU21D;59343;51.102;5.884;2023-12-07T12:31:11;10.16;61.34
71523;HTU21D;59343;51.102;5.884;2023-12-07T12:33:37;9.98;61.90
71523;HTU21D;59343;51.102;5.884;2023-12-07T12:36:07;9.82;62.37
71523;HTU21D;59343;51.102;5.884;2023-12-07T12:38:33;9.69;62.70
71523;HTU21D;59343;51.102;5.884;2023-12-07T12:40:59;9.61;63.19
71523;HTU21D;59343;51.102;5.884;2023-12-07T12:43:59;9.50;63.76
71523;HTU21D;59343;51.102;5.884;2023-12-07T12:46:25;9.45;64.08
71523;HTU21D;59343;51.102;5.884;2023-12-07T12:49:18;9.40;64.40
71523;HTU21D;59343;51.102;5.884;2023-12-07T12:51:47;9.32;64.56
71523;HTU21D;59343;51.102;5.884;2023-12-07T12:54:20;9.24;64.79
71523;HTU21D;59343;51.102;5.884;2023-12-07T12:56:48;9.22;65.33
71523;HTU21D;59343;51.102;5.884;2023-12-07T12:59:35;9.22;65.56
71523;HTU21D;59343;51.102;5.884;2023-12-07T13:14:48;8.78;66.62
71523;HTU21D;59343;51.102;5.884;2023-12-07T13:17:31;8.70;66.98
71523;HTU21D;59343;51.102;5.884;2023-12-07T13:25:00;8.44;67.46
71523;HTU21D;59343;51.102;5.884;2023-12-07T13:28:56;8.33;67.81
71523;HTU21D;59343;51.102;5.884;2023-12-07T13:31:29;8.28;68.06
71523;HTU21D;59343;51.102;5.884;2023-12-07T13:35:30;8.12;68.31
71523;HTU21D;59343;51.102;5.884;2023-12-07T13:39:01;7.94;68.68
71523;HTU21D;59343;51.102;5.884;2023-12-07T13:42:30;7.84;69.26
71523;HTU21D;59343;51.102;5.884;2023-12-07T13:45:20;7.81;69.49
71523;HTU21D;59343;51.102;5.884;2023-12-07T13:48:10;7.77;69.71
71523;HTU21D;59343;51.102;5.884;2023-12-07T13:51:08;7.74;69.90
71523;HTU21D;59343;51.102;5.884;2023-12-07T13:53:52;7.72;70.19
71523;HTU21D;59343;51.102;5.884;2023-12-07T13:56:38;7.70;70.48
71523;HTU21D;59343;51.102;5.884;2023-12-07T14:02:35;7.61;70.67
71523;HTU21D;59343;51.102;5.884;2023-12-07T14:05:11;7.57;70.83
71523;HTU21D;59343;51.102;5.884;2023-12-07T14:07:39;7.54;70.94
71523;HTU21D;59343;51.102;5.884;2023-12-07T14:10:22;7.52;71.00
71523;HTU21D;59343;51.102;5.884;2023-12-07T14:12:58;7.48;70.95
71523;HTU21D;59343;51.102;5.884;2023-12-07T14:15:33;7.45;70.86
71523;HTU21D;59343;51.102;5.884;2023-12-07T14:18:11;7.42;70.91
71523;HTU21D;59343;51.102;5.884;2023-12-07T14:20:53;7.37;70.93
71523;HTU21D;59343;51.102;5.884;2023-12-07T14:23:34;7.35;70.83
71523;HTU21D;59343;51.102;5.884;2023-12-07T14:26:35;7.31;70.84
71523;HTU21D;59343;51.102;5.884;2023-12-07T14:29:14;7.28;70.65
71523;HTU21D;59343;51.102;5.884;2023-12-07T14:32:10;7.19;70.87
71523;HTU21D;59343;51.102;5.884;2023-12-07T14:35:26;7.16;71.13
71523;HTU21D;59343;51.102;5.884;2023-12-07T14:38:36;7.13;71.21
71523;HTU21D;59343;51.102;5.884;2023-12-07T14:41:32;7.07;71.38
71523;HTU21D;59343;51.102;5.884;2023-12-07T14:44:15;7.02;71.42
71523;HTU21D;59343;51.102;5.884;2023-12-07T14:46:50;6.95;71.48
71523;HTU21D;59343;51.102;5.884;2023-12-07T14:49:28;6.89;71.71
71523;HTU21D;59343;51.102;5.884;2023-12-07T14:51:56;6.82;71.76
71523;HTU21D;59343;51.102;5.884;2023-12-07T14:54:30;6.74;71.91
71523;HTU21D;59343;51.102;5.884;2023-12-07T14:57:12;6.70;72.07
71523;HTU21D;59343;51.102;5.884;2023-12-07T14:59:45;6.68;72.06
71523;HTU21D;59343;51.102;5.884;2023-12-07T15:02:28;6.59;72.18
71523;HTU21D;59343;51.102;5.884;2023-12-07T15:05:17;6.55;72.28
71523;HTU21D;59343;51.102;5.884;2023-12-07T15:08:48;6.50;72.18
71523;HTU21D;59343;51.102;5.884;2023-12-07T15:11:39;6.45;72.26
71523;HTU21D;59343;51.102;5.884;2023-12-07T15:14:22;6.43;72.39
71523;HTU21D;59343;51.102;5.884;2023-12-07T15:16:57;6.39;72.33
71523;HTU21D;59343;51.102;5.884;2023-12-07T15:19:38;6.34;72.51
71523;HTU21D;59343;51.102;5.884;2023-12-07T15:22:12;6.31;72.67
71523;HTU21D;59343;51.102;5.884;2023-12-07T15:24:51;6.27;72.87
71523;HTU21D;59343;51.102;5.884;2023-12-07T15:27:42;6.26;72.88
71523;HTU21D;59343;51.102;5.884;2023-12-07T15:30:23;6.21;72.98
71523;HTU21D;59343;51.102;5.884;2023-12-07T15:33:02;6.17;72.94
71523;HTU21D;59343;51.102;5.884;2023-12-07T15:36:16;6.15;72.95
71523;HTU21D;59343;51.102;5.884;2023-12-07T15:39:08;6.12;73.09
71523;HTU21D;59343;51.102;5.884;2023-12-07T15:42:12;6.08;73.06
71523;HTU21D;59343;51.102;5.884;2023-12-07T15:45:17;6.06;73.24
71523;HTU21D;59343;51.102;5.884;2023-12-07T15:47:49;6.02;73.22
71523;HTU21D;59343;51.102;5.884;2023-12-07T15:50:31;5.99;73.23
71523;HTU21D;59343;51.102;5.884;2023-12-07T15:53:24;5.93;73.22
71523;HTU21D;59343;51.102;5.884;2023-12-07T15:56:13;5.87;73.37
71523;HTU21D;59343;51.102;5.884;2023-12-07T15:58:41;5.82;73.42
71523;HTU21D;59343;51.102;5.884;2023-12-07T16:01:42;5.71;73.55
71523;HTU21D;59343;51.102;5.884;2023-12-07T16:04:29;5.70;73.67
71523;HTU21D;59343;51.102;5.884;2023-12-07T16:07:17;5.66;73.77
71523;HTU21D;59343;51.102;5.884;2023-12-07T16:13:02;5.59;74.07
71523;HTU21D;59343;51.102;5.884;2023-12-07T16:17:22;5.56;74.11
71523;HTU21D;59343;51.102;5.884;2023-12-07T16:24:40;5.55;74.15
71523;HTU21D;59343;51.102;5.884;2023-12-07T16:27:36;5.56;74.24
71523;HTU21D;59343;51.102;5.884;2023-12-07T16:31:17;5.53;74.15
71523;HTU21D;59343;51.102;5.884;2023-12-07T16:34:33;5.53;74.29
71523;HTU21D;59343;51.102;5.884;2023-12-07T16:37:41;5.52;74.23
71523;HTU21D;59343;51.102;5.884;2023-12-07T16:40:23;5.52;74.25
71523;HTU21D;59343;51.102;5.884;2023-12-07T16:43:31;5.50;74.36
71523;HTU21D;59343;51.102;5.884;2023-12-07T16:57:32;5.42;74.50
71523;HTU21D;59343;51.102;5.884;2023-12-07T17:00:11;5.40;74.51
71523;HTU21D;59343;51.102;5.884;2023-12-07T17:03:06;5.40;74.49
71523;HTU21D;59343;51.102;5.884;2023-12-07T17:05:36;5.39;74.38
71523;HTU21D;59343;51.102;5.884;2023-12-07T17:08:06;5.35;74.34
71523;HTU21D;59343;51.102;5.884;2023-12-07T17:18:58;5.36;74.31
71523;HTU21D;59343;51.102;5.884;2023-12-07T17:21:32;5.34;74.28
71523;HTU21D;59343;51.102;5.884;2023-12-07T17:42:32;5.12;74.35
71523;HTU21D;59343;51.102;5.884;2023-12-07T18:02:14;4.86;74.80
71523;HTU21D;59343;51.102;5.884;2023-12-07T18:05:17;4.88;74.76